ULLIEETU

Guest
Details From ULLI - Saint Petersburg Pulkovo
To EETU - TARTU
Flight Number -
Tags generated
Created
Modified
Stats Distance 142 nm / 263 km
Max Altitude 14,600 ft / 4,450 m
Waypoints 3
Social Downloads 1
Likes 0
Share VATSIM

Download

Looking for another format? Having issues loading an existing format? Contact us
Advertisement - Login to hide

Notes

Basic altitude profile: - Ascent Rate: 2500ft/min - Ascent Speed: 250kts - Cruise Altitude: 16000ft - Cruise Speed: 280kts - Descent Rate: 1500ft/min - Descent Speed: 250kts Options: - Use NATs: yes - Use PACOTS: yes - Use low airways: yes - Use high airways: yes

Route

ULLI LENGA EETU

ID Type Via Altitude Latitude Longitude Leg Dist Tot Dist Heading (true) Name
O ULLI APT - 0 ft / 0 m 59.80029˚ 30.26250˚ - 0 nm - Saint Petersburg Pulkovo
LENGA FIX - 14,600 ft / 4,450 m 59.32139˚ 29.18083˚ 43 nm 43 nm 229° / 228° -
O EETU APT - 0 ft / 0 m 58.30746˚ 26.69043˚ 98 nm 142 nm 233° / 231° TARTU

Altitude Profile

Advertisement - Login to hide

ULLI

Details ICAO ULLI (LED)
Name Saint Petersburg Pulkovo
Region Russia
Timezone Europe/Moscow (UTC+3.0)
Stats Elevation 78 ft / 24 m (AMSL)
Location 59.800292° 30.262504°
Runways 2
Magnetic Variation 10.695° E

METAR

ULLI 140430Z 15002MPS 120V200 9999 BKN028 M00/M02 Q1005 R10R/290050 NOSIG

Decode

TAF

TAF TAF ULLI 140200Z 1403/1503 18004G09MPS 6000 BKN013 BKN020 TEMPO 1403/1406 3100 -SHSN BR BKN011 BKN017CB BECMG 1406/1408 19006G11MPS TEMPO 1406/1415 3100 -SHRA BR BKN007 BKN015CB BECMG 1415/1417 13006G12MPS TEMPO 1415/1503 3100 -SHSN BKN007 BKN015CB

Decode

Departure Runways

ID Width Length Bearing (true) Bearing (mag) Surface Threshold Offset Overrun Length
10L 197 ft / 60 m 11,115 ft / 3,388 m 106.38° 95.68° Concrete 0 ft / 0 m 235 ft / 72 m
10R 197 ft / 60 m 12,365 ft / 3,769 m 106.40° 95.70° Concrete 0 ft / 0 m 220 ft / 67 m
28L 197 ft / 60 m 12,365 ft / 3,769 m 286.46° 275.76° Concrete 0 ft / 0 m 260 ft / 79 m
28R 197 ft / 60 m 11,115 ft / 3,388 m 286.44° 275.74° Concrete 0 ft / 0 m 240 ft / 73 m

EETU

Details ICAO EETU (TAY)
Name TARTU
Region Estonia
Timezone Europe/Tallinn (UTC+2.0)
Stats Elevation 219 ft / 67 m (AMSL)
Location 58.307462° 26.690427°
Runways 1
Magnetic Variation 8.944° E

METAR

EETU 140350Z AUTO 17012KT 9999 NCD M01/M04 Q1003

Decode

TAF

Not found

Destination Runways

ID Width Length Bearing (true) Bearing (mag) Surface Threshold Offset Overrun Length
08 115 ft / 35 m 4,510 ft / 1,375 m 88.42° 79.48° Asphalt 0 ft / 0 m 0 ft / 0 m
26 115 ft / 35 m 4,510 ft / 1,375 m 268.44° 259.50° Asphalt 0 ft / 0 m 0 ft / 0 m